Impacts METAR Board
IDs:

KCLT - Charlotte/Douglas In, NC, US

Updated at: 2200 UTC 23 May 2018
Potential Impact None Slight Moderate High
Time 23/10Z 23/11Z 23/12Z 23/13Z 23/14Z 23/15Z 23/16Z 23/17Z 23/18Z 23/19Z 23/20Z 23/21Z 23/22Z
Temp71 71 71 75 78 79 82 84 85 87 86 84 86
Dewpt69 69 69 70 69 69 69 70 69 68 68 69 68
Altim30.08 30.09 30.10 30.10 30.10 30.10 30.10 30.09 30.07 30.05 30.04 30.02 30.02
VIS10 10 10 10 10 10 10 10 10 10 10 10 10
CIG8 9 9 250 -- -- -- 250 250 -- 250 250 250
CoverOVCOVCOVCBKNSCTSCTSCTBKNBKNSCTBKNBKNBKN
FltCatIFRIFRIFRVFRVFRVFRVFRVFRVFRVFRVFRVFRVFR
WX--------------------------
WDir26023023021024020024002302802100250
WSpd5 5 7 8 6 6 7 6 5 5 6 0 3
WGst-- -- -- -- -- -- -- -- -- -- -- -- --
Raw hourly METARs
KCLT 230952Z 26005KT 10SM OVC008 22/21 A3008 RMK AO2 SLP175 T02170206
KCLT 231052Z 23005KT 10SM BKN009 OVC016 22/21 A3009 RMK AO2 SLP181 T02170206
KCLT 231152Z 23007KT 10SM BKN009 OVC080 22/21 A3010 RMK AO2 SLP186 T02170206 10222 20211 53014
KCLT 231252Z 21008KT 10SM FEW008 SCT095 BKN250 24/21 A3010 RMK AO2 SLP185 T02390211
KCLT 231352Z 24006KT 10SM FEW010 SCT110 SCT250 26/21 A3010 RMK AO2 SLP185 T02560206
KCLT 231452Z 20006KT 10SM FEW020 FEW110 SCT250 26/21 A3010 RMK AO2 SLP184 TCU DSNT S T02610206 58001
KCLT 231552Z 24007KT 10SM FEW026 SCT130 SCT250 28/21 A3010 RMK AO2 SLP183 TCU DSNT S T02780206
KCLT 231652Z VRB06KT 10SM FEW028 SCT140 BKN250 29/21 A3009 RMK AO2 SLP179 CB DSNT SE AND SW AND NW TCU DSNT NW-NE T02890211
KCLT 231752Z 23005KT 10SM SCT032TCU SCT150 BKN250 29/21 A3007 RMK AO2 SLP172 CB DSNT SW AND NW TCU N-NE AND S-SW T02940206 10294 20217 58011
KCLT 231852Z 28005KT 10SM FEW032TCU SCT160 SCT250 31/20 A3005 RMK AO2 LTG DSNT S SLP167 CB DSNT NW-NE AND SE-SW TCU N-E-S T03060200
KCLT 231952Z 21006KT 10SM SCT034TCU SCT160 BKN250 30/20 A3004 RMK AO2 SLP162 CB DSNT SE TCU N-E T03000200
KCLT 232052Z 00000KT 10SM SCT040TCU SCT085 SCT160 BKN250 29/21 A3002 RMK AO2 RAB36E50 SLP157 CB DSNT SE TCU E AND SW-W P0000 60000 T02890206 58015
KCLT 232152Z COR 25003KT 10SM SCT040TCU SCT080 SCT120 BKN250 30/20 A3002 RMK AO2 LTG DSNT E AND SE SLP157 CB DSNT NE AND SE TCU SE AND W T03000200



Page loaded:  22:20 UTC  |   03:20 PM Pacific  |   04:20 PM Mountain  |   05:20 PM Central  |   06:20 PM Eastern

 

ADVISORIES

FORECASTS

FORECASTS

OBSERVATIONS

USER TOOLS

ABOUT US